sensor_id;sensor_type;location;lat;lon;timestamp;P1;durP1;ratioP1;P2;durP2;ratioP2
57025;SDS011;43961;52.940;6.834;2022-10-16T00:00:29;16.13;;;9.18;;
57025;SDS011;43961;52.940;6.834;2022-10-16T00:02:55;18.30;;;8.18;;
57025;SDS011;43961;52.940;6.834;2022-10-16T00:05:21;15.13;;;6.80;;
57025;SDS011;43961;52.940;6.834;2022-10-16T00:07:46;12.90;;;6.47;;
57025;SDS011;43961;52.940;6.834;2022-10-16T00:10:12;15.35;;;7.20;;
57025;SDS011;43961;52.940;6.834;2022-10-16T00:12:37;17.00;;;7.05;;
57025;SDS011;43961;52.940;6.834;2022-10-16T00:15:03;11.98;;;6.35;;
57025;SDS011;43961;52.940;6.834;2022-10-16T00:17:30;18.52;;;8.07;;
57025;SDS011;43961;52.940;6.834;2022-10-16T00:19:55;21.83;;;7.88;;
57025;SDS011;43961;52.940;6.834;2022-10-16T00:22:22;15.68;;;8.93;;
57025;SDS011;43961;52.940;6.834;2022-10-16T00:24:47;19.63;;;8.30;;
57025;SDS011;43961;52.940;6.834;2022-10-16T00:27:13;15.77;;;7.65;;
57025;SDS011;43961;52.940;6.834;2022-10-16T00:29:38;18.65;;;7.88;;
57025;SDS011;43961;52.940;6.834;2022-10-16T00:32:04;8.90;;;6.13;;
57025;SDS011;43961;52.940;6.834;2022-10-16T00:34:30;30.55;;;7.45;;
57025;SDS011;43961;52.940;6.834;2022-10-16T00:36:55;21.83;;;8.20;;
57025;SDS011;43961;52.940;6.834;2022-10-16T00:39:21;16.42;;;7.05;;
57025;SDS011;43961;52.940;6.834;2022-10-16T00:41:47;16.05;;;6.88;;
57025;SDS011;43961;52.940;6.834;2022-10-16T00:47:13;21.63;;;8.98;;
57025;SDS011;43961;52.940;6.834;2022-10-16T00:49:43;18.25;;;7.88;;
57025;SDS011;43961;52.940;6.834;2022-10-16T00:52:09;13.25;;;6.15;;
57025;SDS011;43961;52.940;6.834;2022-10-16T00:54:35;24.42;;;7.68;;
57025;SDS011;43961;52.940;6.834;2022-10-16T00:57:03;10.68;;;6.03;;
57025;SDS011;43961;52.940;6.834;2022-10-16T00:59:36;17.77;;;7.20;;
57025;SDS011;43961;52.940;6.834;2022-10-16T01:02:04;12.60;;;6.25;;
57025;SDS011;43961;52.940;6.834;2022-10-16T01:04:35;13.75;;;6.25;;
57025;SDS011;43961;52.940;6.834;2022-10-16T01:10:27;21.70;;;6.22;;
57025;SDS011;43961;52.940;6.834;2022-10-16T01:13:11;24.88;;;7.72;;
57025;SDS011;43961;52.940;6.834;2022-10-16T01:18:41;18.23;;;6.95;;
57025;SDS011;43961;52.940;6.834;2022-10-16T01:21:15;12.23;;;7.45;;
57025;SDS011;43961;52.940;6.834;2022-10-16T01:23:57;14.75;;;7.47;;
57025;SDS011;43961;52.940;6.834;2022-10-16T01:26:29;17.50;;;7.90;;
57025;SDS011;43961;52.940;6.834;2022-10-16T01:29:25;24.08;;;9.52;;
57025;SDS011;43961;52.940;6.834;2022-10-16T01:31:56;23.17;;;8.93;;
57025;SDS011;43961;52.940;6.834;2022-10-16T01:34:33;16.55;;;8.05;;
57025;SDS011;43961;52.940;6.834;2022-10-16T01:37:07;25.95;;;9.38;;
57025;SDS011;43961;52.940;6.834;2022-10-16T01:39:39;16.08;;;8.15;;
57025;SDS011;43961;52.940;6.834;2022-10-16T01:42:08;12.05;;;8.02;;
57025;SDS011;43961;52.940;6.834;2022-10-16T01:44:37;11.35;;;8.18;;
57025;SDS011;43961;52.940;6.834;2022-10-16T01:47:04;12.82;;;7.45;;
57025;SDS011;43961;52.940;6.834;2022-10-16T01:49:33;13.02;;;8.27;;
57025;SDS011;43961;52.940;6.834;2022-10-16T01:52:03;17.02;;;8.80;;
57025;SDS011;43961;52.940;6.834;2022-10-16T01:54:33;22.15;;;8.55;;
57025;SDS011;43961;52.940;6.834;2022-10-16T01:57:02;15.35;;;8.45;;
57025;SDS011;43961;52.940;6.834;2022-10-16T01:59:31;15.85;;;8.55;;
57025;SDS011;43961;52.940;6.834;2022-10-16T02:02:01;16.92;;;9.05;;
57025;SDS011;43961;52.940;6.834;2022-10-16T02:04:33;13.77;;;9.40;;
57025;SDS011;43961;52.940;6.834;2022-10-16T02:07:03;15.63;;;8.13;;
57025;SDS011;43961;52.940;6.834;2022-10-16T02:09:30;22.33;;;10.55;;
57025;SDS011;43961;52.940;6.834;2022-10-16T02:11:58;14.35;;;8.88;;
57025;SDS011;43961;52.940;6.834;2022-10-16T02:14:28;17.92;;;9.48;;
57025;SDS011;43961;52.940;6.834;2022-10-16T02:16:54;19.58;;;10.48;;
57025;SDS011;43961;52.940;6.834;2022-10-16T02:19:20;14.70;;;8.77;;
57025;SDS011;43961;52.940;6.834;2022-10-16T02:21:51;12.95;;;9.55;;
57025;SDS011;43961;52.940;6.834;2022-10-16T02:26:54;18.77;;;9.63;;
57025;SDS011;43961;52.940;6.834;2022-10-16T02:29:41;15.18;;;9.70;;
57025;SDS011;43961;52.940;6.834;2022-10-16T02:32:13;11.18;;;8.13;;
57025;SDS011;43961;52.940;6.834;2022-10-16T02:34:41;17.95;;;8.63;;
57025;SDS011;43961;52.940;6.834;2022-10-16T02:37:08;18.10;;;9.07;;
57025;SDS011;43961;52.940;6.834;2022-10-16T02:39:35;24.33;;;9.00;;
57025;SDS011;43961;52.940;6.834;2022-10-16T02:42:02;12.35;;;8.35;;
57025;SDS011;43961;52.940;6.834;2022-10-16T02:44:28;19.50;;;9.30;;
57025;SDS011;43961;52.940;6.834;2022-10-16T02:46:54;18.42;;;7.80;;
57025;SDS011;43961;52.940;6.834;2022-10-16T02:49:20;14.45;;;9.60;;
57025;SDS011;43961;52.940;6.834;2022-10-16T02:51:45;18.20;;;9.00;;
57025;SDS011;43961;52.940;6.834;2022-10-16T02:54:11;15.32;;;8.38;;
57025;SDS011;43961;52.940;6.834;2022-10-16T02:56:38;15.23;;;8.77;;
57025;SDS011;43961;52.940;6.834;2022-10-16T02:59:03;15.35;;;7.88;;
57025;SDS011;43961;52.940;6.834;2022-10-16T03:01:29;12.75;;;7.55;;
57025;SDS011;43961;52.940;6.834;2022-10-16T03:03:55;11.10;;;8.23;;
57025;SDS011;43961;52.940;6.834;2022-10-16T03:06:20;12.88;;;8.43;;
57025;SDS011;43961;52.940;6.834;2022-10-16T03:08:46;10.27;;;7.60;;
57025;SDS011;43961;52.940;6.834;2022-10-16T03:11:12;11.20;;;7.57;;
57025;SDS011;43961;52.940;6.834;2022-10-16T03:13:37;14.70;;;8.75;;
57025;SDS011;43961;52.940;6.834;2022-10-16T03:16:03;19.83;;;9.27;;
57025;SDS011;43961;52.940;6.834;2022-10-16T03:18:29;12.13;;;8.02;;
57025;SDS011;43961;52.940;6.834;2022-10-16T03:20:54;12.65;;;8.50;;
57025;SDS011;43961;52.940;6.834;2022-10-16T03:23:20;10.93;;;8.07;;
57025;SDS011;43961;52.940;6.834;2022-10-16T03:25:46;17.33;;;8.63;;
57025;SDS011;43961;52.940;6.834;2022-10-16T03:28:11;15.40;;;7.72;;
57025;SDS011;43961;52.940;6.834;2022-10-16T03:30:37;17.13;;;8.48;;
57025;SDS011;43961;52.940;6.834;2022-10-16T03:33:04;15.13;;;8.30;;
57025;SDS011;43961;52.940;6.834;2022-10-16T03:35:30;11.23;;;7.95;;
57025;SDS011;43961;52.940;6.834;2022-10-16T03:37:56;14.20;;;7.70;;
57025;SDS011;43961;52.940;6.834;2022-10-16T03:40:23;12.45;;;7.45;;
57025;SDS011;43961;52.940;6.834;2022-10-16T03:42:49;10.43;;;7.28;;
57025;SDS011;43961;52.940;6.834;2022-10-16T03:45:14;9.50;;;6.32;;
57025;SDS011;43961;52.940;6.834;2022-10-16T03:47:40;12.35;;;6.97;;
57025;SDS011;43961;52.940;6.834;2022-10-16T03:50:07;20.63;;;8.02;;
57025;SDS011;43961;52.940;6.834;2022-10-16T03:52:33;10.18;;;7.32;;
57025;SDS011;43961;52.940;6.834;2022-10-16T03:54:59;14.65;;;7.20;;
57025;SDS011;43961;52.940;6.834;2022-10-16T03:57:25;12.70;;;6.95;;
57025;SDS011;43961;52.940;6.834;2022-10-16T03:59:50;15.90;;;7.53;;
57025;SDS011;43961;52.940;6.834;2022-10-16T04:02:17;12.85;;;6.93;;
57025;SDS011;43961;52.940;6.834;2022-10-16T04:04:42;14.48;;;7.25;;
57025;SDS011;43961;52.940;6.834;2022-10-16T04:07:08;12.98;;;8.13;;
57025;SDS011;43961;52.940;6.834;2022-10-16T04:09:34;11.18;;;8.43;;
57025;SDS011;43961;52.940;6.834;2022-10-16T04:11:59;15.90;;;10.30;;
57025;SDS011;43961;52.940;6.834;2022-10-16T04:14:25;12.00;;;9.48;;
57025;SDS011;43961;52.940;6.834;2022-10-16T04:16:51;7.72;;;6.95;;
57025;SDS011;43961;52.940;6.834;2022-10-16T04:19:16;13.25;;;7.82;;
57025;SDS011;43961;52.940;6.834;2022-10-16T04:21:42;14.57;;;7.90;;
57025;SDS011;43961;52.940;6.834;2022-10-16T04:24:08;11.70;;;7.35;;
57025;SDS011;43961;52.940;6.834;2022-10-16T04:26:33;8.07;;;6.85;;
57025;SDS011;43961;52.940;6.834;2022-10-16T04:28:59;12.02;;;7.32;;
57025;SDS011;43961;52.940;6.834;2022-10-16T04:31:24;16.52;;;7.90;;
57025;SDS011;43961;52.940;6.834;2022-10-16T04:33:50;15.35;;;8.55;;
57025;SDS011;43961;52.940;6.834;2022-10-16T04:36:16;13.88;;;7.85;;
57025;SDS011;43961;52.940;6.834;2022-10-16T04:38:41;15.82;;;7.90;;
57025;SDS011;43961;52.940;6.834;2022-10-16T04:41:07;25.00;;;8.52;;
57025;SDS011;43961;52.940;6.834;2022-10-16T04:43:33;17.10;;;8.68;;
57025;SDS011;43961;52.940;6.834;2022-10-16T04:45:59;17.35;;;9.60;;
57025;SDS011;43961;52.940;6.834;2022-10-16T04:48:25;11.80;;;7.88;;
57025;SDS011;43961;52.940;6.834;2022-10-16T04:50:51;16.13;;;8.63;;
57025;SDS011;43961;52.940;6.834;2022-10-16T04:53:17;19.08;;;9.57;;
57025;SDS011;43961;52.940;6.834;2022-10-16T04:55:42;13.45;;;9.35;;
57025;SDS011;43961;52.940;6.834;2022-10-16T04:58:09;10.98;;;9.30;;
57025;SDS011;43961;52.940;6.834;2022-10-16T05:00:34;17.60;;;10.45;;
57025;SDS011;43961;52.940;6.834;2022-10-16T05:03:01;12.70;;;9.55;;
57025;SDS011;43961;52.940;6.834;2022-10-16T05:05:30;14.80;;;10.05;;
57025;SDS011;43961;52.940;6.834;2022-10-16T05:07:56;22.88;;;10.23;;
57025;SDS011;43961;52.940;6.834;2022-10-16T05:10:22;21.58;;;10.82;;
57025;SDS011;43961;52.940;6.834;2022-10-16T05:12:48;13.63;;;10.65;;
57025;SDS011;43961;52.940;6.834;2022-10-16T05:15:13;13.90;;;10.98;;
57025;SDS011;43961;52.940;6.834;2022-10-16T05:17:39;15.65;;;9.80;;
57025;SDS011;43961;52.940;6.834;2022-10-16T05:20:05;15.73;;;10.77;;
57025;SDS011;43961;52.940;6.834;2022-10-16T05:22:31;22.40;;;10.57;;
57025;SDS011;43961;52.940;6.834;2022-10-16T05:24:57;21.48;;;9.70;;
57025;SDS011;43961;52.940;6.834;2022-10-16T05:27:22;23.52;;;10.15;;
57025;SDS011;43961;52.940;6.834;2022-10-16T05:29:48;15.68;;;10.05;;
57025;SDS011;43961;52.940;6.834;2022-10-16T05:32:14;26.85;;;9.80;;
57025;SDS011;43961;52.940;6.834;2022-10-16T05:34:40;10.65;;;8.75;;
57025;SDS011;43961;52.940;6.834;2022-10-16T05:37:07;19.00;;;10.23;;
57025;SDS011;43961;52.940;6.834;2022-10-16T05:39:33;13.82;;;9.73;;
57025;SDS011;43961;52.940;6.834;2022-10-16T05:41:58;13.70;;;10.73;;
57025;SDS011;43961;52.940;6.834;2022-10-16T05:44:24;14.65;;;9.48;;
57025;SDS011;43961;52.940;6.834;2022-10-16T05:46:51;15.98;;;10.32;;
57025;SDS011;43961;52.940;6.834;2022-10-16T05:49:16;14.30;;;9.63;;
57025;SDS011;43961;52.940;6.834;2022-10-16T05:51:42;16.33;;;10.23;;
57025;SDS011;43961;52.940;6.834;2022-10-16T05:54:08;16.38;;;10.10;;
57025;SDS011;43961;52.940;6.834;2022-10-16T05:56:34;14.65;;;10.55;;
57025;SDS011;43961;52.940;6.834;2022-10-16T05:58:59;12.60;;;10.50;;
57025;SDS011;43961;52.940;6.834;2022-10-16T06:01:25;14.77;;;10.93;;
57025;SDS011;43961;52.940;6.834;2022-10-16T06:03:51;16.48;;;10.23;;
57025;SDS011;43961;52.940;6.834;2022-10-16T06:06:18;21.38;;;11.02;;
57025;SDS011;43961;52.940;6.834;2022-10-16T06:08:45;18.15;;;10.68;;
57025;SDS011;43961;52.940;6.834;2022-10-16T06:11:13;14.02;;;10.13;;
57025;SDS011;43961;52.940;6.834;2022-10-16T06:13:41;15.00;;;10.40;;
57025;SDS011;43961;52.940;6.834;2022-10-16T06:16:08;17.35;;;9.73;;
57025;SDS011;43961;52.940;6.834;2022-10-16T06:18:35;11.73;;;9.55;;
57025;SDS011;43961;52.940;6.834;2022-10-16T06:21:09;15.23;;;10.05;;
57025;SDS011;43961;52.940;6.834;2022-10-16T06:23:36;15.20;;;9.38;;
57025;SDS011;43961;52.940;6.834;2022-10-16T06:26:08;16.90;;;9.07;;
57025;SDS011;43961;52.940;6.834;2022-10-16T06:28:36;14.02;;;8.68;;
57025;SDS011;43961;52.940;6.834;2022-10-16T06:31:02;16.75;;;10.05;;
57025;SDS011;43961;52.940;6.834;2022-10-16T06:33:29;14.98;;;9.77;;
57025;SDS011;43961;52.940;6.834;2022-10-16T06:36:04;13.48;;;9.02;;
57025;SDS011;43961;52.940;6.834;2022-10-16T06:38:33;16.05;;;7.55;;
57025;SDS011;43961;52.940;6.834;2022-10-16T06:40:59;14.90;;;9.60;;
57025;SDS011;43961;52.940;6.834;2022-10-16T06:43:25;8.45;;;7.22;;
57025;SDS011;43961;52.940;6.834;2022-10-16T06:45:56;12.77;;;8.18;;
57025;SDS011;43961;52.940;6.834;2022-10-16T06:48:22;14.82;;;8.02;;
57025;SDS011;43961;52.940;6.834;2022-10-16T06:53:36;12.93;;;8.93;;
57025;SDS011;43961;52.940;6.834;2022-10-16T06:56:16;11.52;;;8.32;;
57025;SDS011;43961;52.940;6.834;2022-10-16T06:58:44;13.93;;;8.50;;
57025;SDS011;43961;52.940;6.834;2022-10-16T07:01:11;25.90;;;8.30;;
57025;SDS011;43961;52.940;6.834;2022-10-16T07:03:38;10.57;;;7.57;;
57025;SDS011;43961;52.940;6.834;2022-10-16T07:06:05;12.82;;;7.15;;
57025;SDS011;43961;52.940;6.834;2022-10-16T07:08:32;14.13;;;8.45;;
57025;SDS011;43961;52.940;6.834;2022-10-16T07:11:02;13.02;;;7.85;;
57025;SDS011;43961;52.940;6.834;2022-10-16T07:13:31;12.52;;;7.15;;
57025;SDS011;43961;52.940;6.834;2022-10-16T07:18:28;15.48;;;8.23;;
57025;SDS011;43961;52.940;6.834;2022-10-16T07:21:02;11.02;;;7.65;;
57025;SDS011;43961;52.940;6.834;2022-10-16T07:23:31;12.38;;;7.75;;
57025;SDS011;43961;52.940;6.834;2022-10-16T07:25:57;16.08;;;8.10;;
57025;SDS011;43961;52.940;6.834;2022-10-16T07:28:22;10.45;;;7.15;;
57025;SDS011;43961;52.940;6.834;2022-10-16T07:30:48;12.43;;;6.38;;
57025;SDS011;43961;52.940;6.834;2022-10-16T07:33:14;21.15;;;8.07;;
57025;SDS011;43961;52.940;6.834;2022-10-16T07:35:52;14.52;;;7.60;;
57025;SDS011;43961;52.940;6.834;2022-10-16T07:38:19;11.50;;;7.57;;
57025;SDS011;43961;52.940;6.834;2022-10-16T07:40:46;15.37;;;7.00;;
57025;SDS011;43961;52.940;6.834;2022-10-16T07:43:12;10.38;;;6.45;;
57025;SDS011;43961;52.940;6.834;2022-10-16T07:45:46;11.80;;;6.72;;
57025;SDS011;43961;52.940;6.834;2022-10-16T07:48:13;11.85;;;7.55;;
57025;SDS011;43961;52.940;6.834;2022-10-16T07:50:39;10.02;;;6.93;;
57025;SDS011;43961;52.940;6.834;2022-10-16T07:53:04;9.98;;;6.70;;
57025;SDS011;43961;52.940;6.834;2022-10-16T07:55:30;10.65;;;6.25;;
57025;SDS011;43961;52.940;6.834;2022-10-16T07:57:56;15.05;;;7.93;;
57025;SDS011;43961;52.940;6.834;2022-10-16T08:00:22;13.20;;;7.00;;
57025;SDS011;43961;52.940;6.834;2022-10-16T08:02:47;12.45;;;6.93;;
57025;SDS011;43961;52.940;6.834;2022-10-16T08:05:13;12.57;;;7.15;;
57025;SDS011;43961;52.940;6.834;2022-10-16T08:07:39;11.77;;;6.57;;
57025;SDS011;43961;52.940;6.834;2022-10-16T08:10:04;13.13;;;6.65;;
57025;SDS011;43961;52.940;6.834;2022-10-16T08:12:30;11.02;;;5.95;;
57025;SDS011;43961;52.940;6.834;2022-10-16T08:14:57;11.25;;;6.65;;
57025;SDS011;43961;52.940;6.834;2022-10-16T08:17:23;13.82;;;5.80;;
57025;SDS011;43961;52.940;6.834;2022-10-16T08:19:48;10.45;;;6.10;;
57025;SDS011;43961;52.940;6.834;2022-10-16T08:22:14;14.20;;;6.53;;
57025;SDS011;43961;52.940;6.834;2022-10-16T08:24:40;13.80;;;7.72;;
57025;SDS011;43961;52.940;6.834;2022-10-16T08:27:06;18.95;;;7.50;;
57025;SDS011;43961;52.940;6.834;2022-10-16T08:29:32;18.92;;;6.50;;
57025;SDS011;43961;52.940;6.834;2022-10-16T08:31:57;11.90;;;5.82;;
57025;SDS011;43961;52.940;6.834;2022-10-16T08:34:23;14.63;;;5.10;;
57025;SDS011;43961;52.940;6.834;2022-10-16T08:36:49;11.52;;;5.65;;
57025;SDS011;43961;52.940;6.834;2022-10-16T08:39:15;14.63;;;4.97;;
57025;SDS011;43961;52.940;6.834;2022-10-16T08:41:53;13.32;;;5.03;;
57025;SDS011;43961;52.940;6.834;2022-10-16T08:47:31;14.48;;;5.20;;
57025;SDS011;43961;52.940;6.834;2022-10-16T08:50:09;6.40;;;3.95;;
57025;SDS011;43961;52.940;6.834;2022-10-16T08:52:43;7.80;;;4.55;;
57025;SDS011;43961;52.940;6.834;2022-10-16T08:58:02;7.47;;;4.63;;
57025;SDS011;43961;52.940;6.834;2022-10-16T09:00:34;6.95;;;4.30;;
57025;SDS011;43961;52.940;6.834;2022-10-16T09:03:05;8.07;;;4.93;;
57025;SDS011;43961;52.940;6.834;2022-10-16T09:11:12;15.18;;;5.63;;
57025;SDS011;43961;52.940;6.834;2022-10-16T09:14:11;10.57;;;4.80;;
57025;SDS011;43961;52.940;6.834;2022-10-16T09:16:54;9.57;;;5.57;;
57025;SDS011;43961;52.940;6.834;2022-10-16T09:21:59;10.30;;;5.38;;
57025;SDS011;43961;52.940;6.834;2022-10-16T09:24:34;16.00;;;5.55;;
57025;SDS011;43961;52.940;6.834;2022-10-16T09:27:01;13.45;;;5.53;;
57025;SDS011;43961;52.940;6.834;2022-10-16T09:29:26;11.18;;;5.78;;
57025;SDS011;43961;52.940;6.834;2022-10-16T09:31:52;14.07;;;7.32;;
57025;SDS011;43961;52.940;6.834;2022-10-16T09:34:30;15.90;;;6.22;;
57025;SDS011;43961;52.940;6.834;2022-10-16T09:36:58;12.27;;;6.10;;
57025;SDS011;43961;52.940;6.834;2022-10-16T09:39:26;13.25;;;6.28;;
57025;SDS011;43961;52.940;6.834;2022-10-16T09:41:52;27.25;;;6.68;;
57025;SDS011;43961;52.940;6.834;2022-10-16T09:44:19;13.32;;;5.55;;
57025;SDS011;43961;52.940;6.834;2022-10-16T09:50:02;8.60;;;4.88;;
57025;SDS011;43961;52.940;6.834;2022-10-16T09:52:31;29.95;;;7.07;;
57025;SDS011;43961;52.940;6.834;2022-10-16T09:54:58;10.43;;;4.45;;
57025;SDS011;43961;52.940;6.834;2022-10-16T09:57:26;18.98;;;6.55;;
57025;SDS011;43961;52.940;6.834;2022-10-16T09:59:53;14.02;;;4.28;;
57025;SDS011;43961;52.940;6.834;2022-10-16T10:05:26;22.00;;;5.60;;
57025;SDS011;43961;52.940;6.834;2022-10-16T10:10:28;15.85;;;5.43;;
57025;SDS011;43961;52.940;6.834;2022-10-16T10:12:56;11.93;;;4.80;;
57025;SDS011;43961;52.940;6.834;2022-10-16T10:15:22;18.35;;;5.40;;
57025;SDS011;43961;52.940;6.834;2022-10-16T10:20:23;16.63;;;4.72;;
57025;SDS011;43961;52.940;6.834;2022-10-16T10:22:55;16.90;;;5.05;;
57025;SDS011;43961;52.940;6.834;2022-10-16T10:46:56;13.45;;;4.80;;
57025;SDS011;43961;52.940;6.834;2022-10-16T10:52:38;27.65;;;6.20;;
57025;SDS011;43961;52.940;6.834;2022-10-16T10:55:43;28.33;;;5.25;;
57025;SDS011;43961;52.940;6.834;2022-10-16T11:05:46;12.50;;;5.15;;
57025;SDS011;43961;52.940;6.834;2022-10-16T11:08:22;13.68;;;4.43;;
57025;SDS011;43961;52.940;6.834;2022-10-16T11:11:04;19.20;;;5.68;;
57025;SDS011;43961;52.940;6.834;2022-10-16T11:14:02;22.48;;;5.20;;
57025;SDS011;43961;52.940;6.834;2022-10-16T11:16:30;18.70;;;6.45;;
57025;SDS011;43961;52.940;6.834;2022-10-16T11:21:30;18.02;;;6.43;;
57025;SDS011;43961;52.940;6.834;2022-10-16T11:26:34;19.88;;;6.53;;
57025;SDS011;43961;52.940;6.834;2022-10-16T11:29:04;20.02;;;5.93;;
57025;SDS011;43961;52.940;6.834;2022-10-16T11:31:43;13.32;;;5.93;;
57025;SDS011;43961;52.940;6.834;2022-10-16T11:34:36;10.90;;;4.07;;
57025;SDS011;43961;52.940;6.834;2022-10-16T11:43:10;27.80;;;5.97;;
57025;SDS011;43961;52.940;6.834;2022-10-16T11:45:41;21.50;;;6.10;;
57025;SDS011;43961;52.940;6.834;2022-10-16T11:53:55;13.98;;;4.85;;
57025;SDS011;43961;52.940;6.834;2022-10-16T11:56:27;18.10;;;4.40;;
57025;SDS011;43961;52.940;6.834;2022-10-16T11:58:56;14.48;;;4.38;;
57025;SDS011;43961;52.940;6.834;2022-10-16T12:06:43;17.55;;;5.35;;
57025;SDS011;43961;52.940;6.834;2022-10-16T12:09:29;17.90;;;5.15;;
57025;SDS011;43961;52.940;6.834;2022-10-16T12:11:56;10.38;;;4.45;;
57025;SDS011;43961;52.940;6.834;2022-10-16T12:17:03;18.38;;;4.55;;
57025;SDS011;43961;52.940;6.834;2022-10-16T12:19:59;15.77;;;4.53;;
57025;SDS011;43961;52.940;6.834;2022-10-16T12:22:41;22.20;;;5.22;;
57025;SDS011;43961;52.940;6.834;2022-10-16T12:30:40;18.00;;;5.90;;
57025;SDS011;43961;52.940;6.834;2022-10-16T12:35:55;12.73;;;4.13;;
57025;SDS011;43961;52.940;6.834;2022-10-16T12:38:27;20.30;;;5.32;;
57025;SDS011;43961;52.940;6.834;2022-10-16T12:41:05;18.58;;;4.28;;
57025;SDS011;43961;52.940;6.834;2022-10-16T12:43:46;21.10;;;5.70;;
57025;SDS011;43961;52.940;6.834;2022-10-16T12:48:39;13.30;;;4.88;;
57025;SDS011;43961;52.940;6.834;2022-10-16T12:53:37;18.63;;;4.85;;
57025;SDS011;43961;52.940;6.834;2022-10-16T12:58:47;14.43;;;4.25;;
57025;SDS011;43961;52.940;6.834;2022-10-16T13:01:26;18.02;;;4.68;;
57025;SDS011;43961;52.940;6.834;2022-10-16T13:06:53;13.05;;;5.35;;
57025;SDS011;43961;52.940;6.834;2022-10-16T13:22:52;14.65;;;5.45;;
57025;SDS011;43961;52.940;6.834;2022-10-16T13:25:34;10.95;;;4.50;;
57025;SDS011;43961;52.940;6.834;2022-10-16T13:28:12;15.98;;;4.10;;
57025;SDS011;43961;52.940;6.834;2022-10-16T13:30:39;13.35;;;3.78;;
57025;SDS011;43961;52.940;6.834;2022-10-16T13:35:55;18.05;;;3.95;;
57025;SDS011;43961;52.940;6.834;2022-10-16T13:38:23;8.15;;;3.00;;
57025;SDS011;43961;52.940;6.834;2022-10-16T13:41:00;22.38;;;4.70;;
57025;SDS011;43961;52.940;6.834;2022-10-16T13:43:37;16.42;;;3.90;;
57025;SDS011;43961;52.940;6.834;2022-10-16T13:46:05;25.25;;;6.43;;
57025;SDS011;43961;52.940;6.834;2022-10-16T13:51:06;17.33;;;4.55;;
57025;SDS011;43961;52.940;6.834;2022-10-16T13:53:42;22.88;;;5.43;;
57025;SDS011;43961;52.940;6.834;2022-10-16T13:56:13;16.80;;;4.60;;
57025;SDS011;43961;52.940;6.834;2022-10-16T13:58:42;8.52;;;4.32;;
57025;SDS011;43961;52.940;6.834;2022-10-16T14:01:51;15.93;;;4.43;;
57025;SDS011;43961;52.940;6.834;2022-10-16T14:04:08;18.98;;;5.13;;
57025;SDS011;43961;52.940;6.834;2022-10-16T14:06:36;26.83;;;5.32;;
57025;SDS011;43961;52.940;6.834;2022-10-16T14:09:08;17.23;;;5.03;;
57025;SDS011;43961;52.940;6.834;2022-10-16T14:11:49;15.60;;;3.85;;
57025;SDS011;43961;52.940;6.834;2022-10-16T14:14:39;22.58;;;4.82;;
57025;SDS011;43961;52.940;6.834;2022-10-16T14:17:13;21.40;;;5.20;;
57025;SDS011;43961;52.940;6.834;2022-10-16T14:19:48;26.23;;;5.72;;
57025;SDS011;43961;52.940;6.834;2022-10-16T14:22:21;15.35;;;6.57;;
57025;SDS011;43961;52.940;6.834;2022-10-16T14:24:56;17.15;;;7.13;;
57025;SDS011;43961;52.940;6.834;2022-10-16T14:27:28;16.92;;;6.20;;
57025;SDS011;43961;52.940;6.834;2022-10-16T14:32:52;24.43;;;6.73;;
57025;SDS011;43961;52.940;6.834;2022-10-16T14:35:44;19.70;;;8.05;;
57025;SDS011;43961;52.940;6.834;2022-10-16T14:38:21;30.85;;;9.00;;
57025;SDS011;43961;52.940;6.834;2022-10-16T14:40:47;12.10;;;6.38;;
57025;SDS011;43961;52.940;6.834;2022-10-16T14:43:14;18.98;;;6.00;;
57025;SDS011;43961;52.940;6.834;2022-10-16T14:45:51;15.93;;;6.13;;
57025;SDS011;43961;52.940;6.834;2022-10-16T14:50:47;14.60;;;5.68;;
57025;SDS011;43961;52.940;6.834;2022-10-16T14:53:13;24.17;;;6.18;;
57025;SDS011;43961;52.940;6.834;2022-10-16T14:55:39;18.90;;;5.07;;
57025;SDS011;43961;52.940;6.834;2022-10-16T14:58:08;9.25;;;5.15;;
57025;SDS011;43961;52.940;6.834;2022-10-16T15:00:42;13.43;;;4.75;;
57025;SDS011;43961;52.940;6.834;2022-10-16T15:03:08;16.85;;;5.75;;
57025;SDS011;43961;52.940;6.834;2022-10-16T15:05:34;13.15;;;6.38;;
57025;SDS011;43961;52.940;6.834;2022-10-16T15:07:59;15.52;;;5.90;;
57025;SDS011;43961;52.940;6.834;2022-10-16T15:10:26;15.63;;;6.22;;
57025;SDS011;43961;52.940;6.834;2022-10-16T15:12:53;20.25;;;5.63;;
57025;SDS011;43961;52.940;6.834;2022-10-16T15:15:31;12.63;;;5.43;;
57025;SDS011;43961;52.940;6.834;2022-10-16T15:17:59;22.42;;;6.43;;
57025;SDS011;43961;52.940;6.834;2022-10-16T15:20:27;13.65;;;5.82;;
57025;SDS011;43961;52.940;6.834;2022-10-16T15:22:53;16.63;;;5.68;;
57025;SDS011;43961;52.940;6.834;2022-10-16T15:25:39;16.70;;;5.22;;
57025;SDS011;43961;52.940;6.834;2022-10-16T15:28:20;18.08;;;5.63;;
57025;SDS011;43961;52.940;6.834;2022-10-16T15:30:48;14.90;;;6.13;;
57025;SDS011;43961;52.940;6.834;2022-10-16T15:33:16;18.05;;;6.72;;
57025;SDS011;43961;52.940;6.834;2022-10-16T15:38:13;20.45;;;7.10;;
57025;SDS011;43961;52.940;6.834;2022-10-16T15:40:40;14.68;;;6.57;;
57025;SDS011;43961;52.940;6.834;2022-10-16T15:43:06;27.85;;;6.32;;
57025;SDS011;43961;52.940;6.834;2022-10-16T15:45:32;16.10;;;6.25;;
57025;SDS011;43961;52.940;6.834;2022-10-16T15:47:58;18.67;;;5.95;;
57025;SDS011;43961;52.940;6.834;2022-10-16T15:50:24;15.07;;;6.50;;
57025;SDS011;43961;52.940;6.834;2022-10-16T15:52:50;13.45;;;7.38;;
57025;SDS011;43961;52.940;6.834;2022-10-16T15:55:16;39.17;;;18.65;;
57025;SDS011;43961;52.940;6.834;2022-10-16T15:57:43;40.90;;;17.98;;
57025;SDS011;43961;52.940;6.834;2022-10-16T16:00:10;27.20;;;13.05;;
57025;SDS011;43961;52.940;6.834;2022-10-16T16:02:39;19.70;;;8.50;;
57025;SDS011;43961;52.940;6.834;2022-10-16T16:05:08;15.18;;;5.90;;
57025;SDS011;43961;52.940;6.834;2022-10-16T16:07:36;18.38;;;5.70;;
57025;SDS011;43961;52.940;6.834;2022-10-16T16:10:03;21.40;;;6.10;;
57025;SDS011;43961;52.940;6.834;2022-10-16T16:12:31;16.65;;;5.50;;
57025;SDS011;43961;52.940;6.834;2022-10-16T16:14:57;14.95;;;6.18;;
57025;SDS011;43961;52.940;6.834;2022-10-16T16:17:23;22.33;;;7.30;;
57025;SDS011;43961;52.940;6.834;2022-10-16T16:19:49;21.42;;;6.63;;
57025;SDS011;43961;52.940;6.834;2022-10-16T16:22:16;18.42;;;7.13;;
57025;SDS011;43961;52.940;6.834;2022-10-16T16:24:41;23.92;;;7.70;;
57025;SDS011;43961;52.940;6.834;2022-10-16T16:27:07;17.92;;;7.82;;
57025;SDS011;43961;52.940;6.834;2022-10-16T16:29:33;25.20;;;9.02;;
57025;SDS011;43961;52.940;6.834;2022-10-16T16:31:59;14.98;;;8.05;;
57025;SDS011;43961;52.940;6.834;2022-10-16T16:34:26;24.58;;;8.85;;
57025;SDS011;43961;52.940;6.834;2022-10-16T16:36:53;20.42;;;9.73;;
57025;SDS011;43961;52.940;6.834;2022-10-16T16:39:19;32.67;;;10.70;;
57025;SDS011;43961;52.940;6.834;2022-10-16T16:41:45;22.52;;;10.68;;
57025;SDS011;43961;52.940;6.834;2022-10-16T16:44:10;23.52;;;10.57;;
57025;SDS011;43961;52.940;6.834;2022-10-16T16:46:37;20.38;;;8.90;;
57025;SDS011;43961;52.940;6.834;2022-10-16T16:49:05;18.88;;;9.30;;
57025;SDS011;43961;52.940;6.834;2022-10-16T16:51:31;22.25;;;8.05;;
57025;SDS011;43961;52.940;6.834;2022-10-16T16:53:58;19.05;;;8.25;;
57025;SDS011;43961;52.940;6.834;2022-10-16T16:56:24;19.20;;;8.80;;
57025;SDS011;43961;52.940;6.834;2022-10-16T16:58:51;18.02;;;7.78;;
57025;SDS011;43961;52.940;6.834;2022-10-16T17:01:18;27.35;;;9.57;;
57025;SDS011;43961;52.940;6.834;2022-10-16T17:03:44;22.55;;;11.00;;
57025;SDS011;43961;52.940;6.834;2022-10-16T17:06:11;23.40;;;10.00;;
57025;SDS011;43961;52.940;6.834;2022-10-16T17:08:39;15.88;;;9.05;;